createdAt,value
2023-03-29T00:01:50.057Z,0.44
2023-03-29T00:04:19.961Z,0.45
2023-03-29T00:06:50.645Z,0.42
2023-03-29T00:09:19.956Z,0.42
2023-03-29T00:11:50.430Z,0.42
2023-03-29T00:14:19.191Z,0.45
2023-03-29T00:16:49.163Z,0.48
2023-03-29T00:19:17.940Z,0.51
2023-03-29T00:21:46.708Z,0.54
2023-03-29T00:24:15.668Z,0.54
2023-03-29T00:26:44.429Z,0.49
2023-03-29T00:29:13.308Z,0.44
2023-03-29T00:31:42.132Z,0.40
2023-03-29T00:34:12.804Z,0.33
2023-03-29T00:36:41.587Z,0.26
2023-03-29T00:39:10.633Z,0.22
2023-03-29T00:41:39.354Z,0.17
2023-03-29T00:44:08.321Z,0.16
2023-03-29T00:46:39.961Z,0.12
2023-03-29T00:49:14.156Z,0.11
2023-03-29T00:51:43.517Z,0.08
2023-03-29T00:54:18.727Z,0.05
2023-03-29T00:56:52.224Z,-0.47
2023-03-29T00:59:28.834Z,0.09
2023-03-29T01:02:03.667Z,0.09
2023-03-29T01:04:41.672Z,0.12
2023-03-29T01:07:18.639Z,0.17
2023-03-29T01:09:55.530Z,0.19
2023-03-29T01:12:29.127Z,0.06
2023-03-29T01:15:05.136Z,0.26
2023-03-29T01:17:34.093Z,0.28
2023-03-29T01:20:14.353Z,0.29
2023-03-29T01:23:04.333Z,-0.03
2023-03-29T01:25:42.337Z,0.37
2023-03-29T01:28:18.433Z,-0.27
2023-03-29T01:30:53.070Z,-0.13
2023-03-29T01:33:28.155Z,0.48
2023-03-29T01:36:06.227Z,0.22
2023-03-29T01:38:44.779Z,0.58
2023-03-29T01:41:13.622Z,0.62
2023-03-29T01:43:54.163Z,0.57
2023-03-29T01:46:36.321Z,0.74
2023-03-29T01:49:14.152Z,0.75
2023-03-29T01:51:52.153Z,0.81
2023-03-29T01:54:29.207Z,0.63
2023-03-29T01:57:00.968Z,1.03
2023-03-29T01:59:36.964Z,0.82
2023-03-29T02:02:12.397Z,0.87
2023-03-29T02:04:48.128Z,1.26
2023-03-29T02:07:21.539Z,0.92
2023-03-29T02:09:53.766Z,1.32
2023-03-29T02:12:22.948Z,1.39
2023-03-29T02:14:53.128Z,1.45
2023-03-29T02:17:24.354Z,1.50
2023-03-29T02:20:00.805Z,1.52
2023-03-29T02:22:36.768Z,1.50
2023-03-29T02:25:09.477Z,1.54
2023-03-29T02:27:40.506Z,1.58
2023-03-29T02:30:13.860Z,1.60
2023-03-29T02:32:58.769Z,1.10
2023-03-29T02:35:36.437Z,1.59
2023-03-29T02:38:10.496Z,0.93
2023-03-29T02:40:41.942Z,0.86
2023-03-29T02:43:13.746Z,1.14
2023-03-29T02:45:46.620Z,1.55
2023-03-29T02:48:21.934Z,1.57
2023-03-29T02:50:56.591Z,1.57
2023-03-29T02:53:32.185Z,1.59
2023-03-29T02:56:02.275Z,1.58
2023-03-29T02:58:32.255Z,1.61
2023-03-29T03:01:05.587Z,1.62
2023-03-29T03:03:35.773Z,1.60
2023-03-29T03:06:06.193Z,1.50
2023-03-29T03:08:35.112Z,1.44
2023-03-29T03:11:04.139Z,1.36
2023-03-29T03:13:33.145Z,1.30
2023-03-29T03:16:03.139Z,1.27
2023-03-29T03:18:32.673Z,1.16
2023-03-29T03:21:04.619Z,1.06
2023-03-29T03:23:33.635Z,0.98
2023-03-29T03:26:03.144Z,0.93
2023-03-29T03:28:33.718Z,0.87
2023-03-29T03:31:07.249Z,0.81
2023-03-29T03:34:02.231Z,0.82
2023-03-29T03:36:42.187Z,0.82
2023-03-29T03:39:12.898Z,0.85
2023-03-29T03:41:41.796Z,0.87
2023-03-29T03:44:10.620Z,0.89
2023-03-29T03:46:41.626Z,0.43
2023-03-29T03:49:10.372Z,0.88
2023-03-29T03:51:45.402Z,0.90
2023-03-29T03:54:15.459Z,0.89
2023-03-29T03:57:03.830Z,0.94
2023-03-29T03:59:46.069Z,0.95
2023-03-29T04:02:22.162Z,0.97
2023-03-29T04:04:51.054Z,1.00
2023-03-29T04:07:25.444Z,1.05
2023-03-29T04:10:12.948Z,1.14
2023-03-29T04:13:27.017Z,1.24
2023-03-29T04:16:14.206Z,1.38
2023-03-29T04:18:44.524Z,1.49
2023-03-29T04:21:13.634Z,1.60
2023-03-29T04:24:00.752Z,1.70
2023-03-29T04:26:30.483Z,1.77
2023-03-29T04:29:07.702Z,1.37
2023-03-29T04:31:43.135Z,1.80
2023-03-29T04:34:43.119Z,1.78
2023-03-29T04:37:12.523Z,1.77
2023-03-29T04:39:42.494Z,1.74
2023-03-29T04:42:12.226Z,1.70
2023-03-29T04:44:42.682Z,1.70
2023-03-29T04:47:14.763Z,1.73
2023-03-29T04:50:17.664Z,1.80
2023-03-29T04:52:47.397Z,1.83
2023-03-29T04:55:16.337Z,1.83
2023-03-29T04:57:55.524Z,1.85
2023-03-29T05:00:35.547Z,1.86
2023-03-29T05:03:36.978Z,1.89
2023-03-29T05:06:16.982Z,1.94
2023-03-29T05:08:46.134Z,1.98
2023-03-29T05:11:32.953Z,2.07
2023-03-29T05:14:03.442Z,2.12
2023-03-29T05:16:35.796Z,2.15
2023-03-29T05:19:05.010Z,2.21
2023-03-29T05:21:43.728Z,2.25
2023-03-29T05:24:17.181Z,2.32
2023-03-29T05:26:51.718Z,2.39
2023-03-29T05:29:20.934Z,2.45
2023-03-29T05:31:55.896Z,2.53
2023-03-29T05:34:25.097Z,2.61
2023-03-29T05:37:01.517Z,2.68
2023-03-29T05:39:37.799Z,2.77
2023-03-29T05:42:07.201Z,2.78
2023-03-29T05:44:49.154Z,2.78
2023-03-29T05:47:22.040Z,2.79
2023-03-29T05:49:51.550Z,2.81
2023-03-29T05:52:24.973Z,2.80
2023-03-29T05:54:53.806Z,2.85
2023-03-29T05:57:23.012Z,2.89
2023-03-29T05:59:52.015Z,2.98
2023-03-29T06:02:21.485Z,3.06
2023-03-29T06:04:55.371Z,3.19
2023-03-29T06:07:25.713Z,3.30
2023-03-29T06:10:23.513Z,3.45
2023-03-29T06:12:57.882Z,3.62
2023-03-29T06:15:27.560Z,3.86
2023-03-29T06:18:03.607Z,4.06
2023-03-29T06:20:33.169Z,4.28
2023-03-29T06:23:10.039Z,4.49
2023-03-29T06:25:39.595Z,4.69
2023-03-29T06:28:09.043Z,4.90
2023-03-29T06:30:37.878Z,5.04
2023-03-29T06:33:07.444Z,5.18
2023-03-29T06:35:51.430Z,5.31
2023-03-29T06:38:28.565Z,5.46
2023-03-29T06:41:03.960Z,5.62
2023-03-29T06:43:45.075Z,5.84
2023-03-29T06:46:17.699Z,6.04
2023-03-29T06:48:57.784Z,6.24
2023-03-29T06:51:33.938Z,6.36
2023-03-29T06:54:05.438Z,6.53
2023-03-29T06:56:35.273Z,6.70
2023-03-29T06:59:10.988Z,6.90
2023-03-29T07:01:48.049Z,7.08
2023-03-29T07:04:27.531Z,7.34
2023-03-29T07:07:37.536Z,7.59
2023-03-29T07:10:18.911Z,7.73
2023-03-29T07:13:12.155Z,7.71
2023-03-29T07:15:42.045Z,7.84
2023-03-29T07:18:21.941Z,7.93
2023-03-29T07:20:52.198Z,8.06
2023-03-29T07:23:21.413Z,8.21
2023-03-29T07:25:52.402Z,8.33
2023-03-29T07:28:21.138Z,8.49
2023-03-29T07:30:51.519Z,8.61
2023-03-29T07:33:23.384Z,8.74
2023-03-29T07:35:55.433Z,8.87
2023-03-29T07:38:25.321Z,9.13
2023-03-29T07:41:04.489Z,9.38
2023-03-29T07:43:44.252Z,9.53
2023-03-29T07:46:14.707Z,9.38
2023-03-29T07:48:43.649Z,9.87
2023-03-29T07:51:16.219Z,10.06
2023-03-29T07:53:50.641Z,10.37
2023-03-29T07:56:39.746Z,10.47
2023-03-29T07:59:16.925Z,10.50
2023-03-29T08:01:50.671Z,10.51
2023-03-29T08:04:38.476Z,10.47
2023-03-29T08:07:30.195Z,10.28
2023-03-29T08:10:23.170Z,10.44
2023-03-29T08:13:14.241Z,10.35
2023-03-29T08:16:09.818Z,10.65
2023-03-29T08:18:44.618Z,10.64
2023-03-29T08:21:14.778Z,10.70
2023-03-29T08:23:47.769Z,10.80
2023-03-29T08:26:22.165Z,10.63
2023-03-29T08:28:53.247Z,10.20
2023-03-29T08:31:24.811Z,10.14
2023-03-29T08:33:54.289Z,10.02
2023-03-29T08:36:38.340Z,9.93
2023-03-29T08:39:14.447Z,10.05
2023-03-29T08:42:06.693Z,10.16
2023-03-29T08:44:57.665Z,10.17
2023-03-29T08:47:39.989Z,10.07
2023-03-29T08:50:15.848Z,9.97
2023-03-29T08:52:56.896Z,10.11
2023-03-29T08:55:56.656Z,10.01
2023-03-29T08:58:59.052Z,10.13
2023-03-29T09:01:38.270Z,10.26
2023-03-29T09:04:12.925Z,10.33
2023-03-29T09:06:50.322Z,10.41
2023-03-29T09:09:28.995Z,10.85
2023-03-29T09:12:14.760Z,10.95
2023-03-29T09:15:15.336Z,11.20
2023-03-29T09:18:10.697Z,11.38
2023-03-29T09:20:53.612Z,11.68
2023-03-29T09:24:03.751Z,12.50
2023-03-29T09:26:52.962Z,12.61
2023-03-29T09:29:51.212Z,13.06
2023-03-29T09:32:33.161Z,13.27
2023-03-29T09:35:18.431Z,13.43
2023-03-29T09:37:53.490Z,13.51
2023-03-29T09:40:28.885Z,12.91
2023-03-29T09:43:25.100Z,12.76
2023-03-29T09:45:59.724Z,12.97
2023-03-29T09:48:30.883Z,12.35
2023-03-29T09:51:05.038Z,12.25
2023-03-29T09:53:34.172Z,12.24
2023-03-29T09:56:15.903Z,12.69
2023-03-29T09:58:51.328Z,13.24
2023-03-29T10:01:21.422Z,13.67
2023-03-29T10:03:54.336Z,13.48
2023-03-29T10:06:26.871Z,13.28
2023-03-29T10:08:59.873Z,12.72
2023-03-29T10:11:37.044Z,12.97
2023-03-29T10:14:13.450Z,12.34
2023-03-29T10:16:46.235Z,12.21
2023-03-29T10:19:21.417Z,12.07
2023-03-29T10:21:54.680Z,12.05
2023-03-29T10:24:25.608Z,12.05
2023-03-29T10:26:56.995Z,11.84
2023-03-29T10:29:27.809Z,11.69
2023-03-29T10:31:56.731Z,11.41
2023-03-29T10:34:28.203Z,11.68
2023-03-29T10:37:02.110Z,11.75
2023-03-29T10:39:36.634Z,12.09
2023-03-29T10:42:08.411Z,12.23
2023-03-29T10:44:38.689Z,12.17
2023-03-29T10:47:16.375Z,12.24
2023-03-29T10:49:48.062Z,12.21
2023-03-29T10:52:19.011Z,12.20
2023-03-29T10:54:48.448Z,12.23
2023-03-29T10:57:25.153Z,12.09
2023-03-29T11:00:04.902Z,11.66
2023-03-29T11:03:24.441Z,11.27
2023-03-29T11:06:00.200Z,11.03
2023-03-29T11:08:42.912Z,11.23
2023-03-29T11:11:31.220Z,10.99
2023-03-29T11:14:06.589Z,10.99
2023-03-29T11:16:43.710Z,10.89
2023-03-29T11:19:37.571Z,10.99
2023-03-29T11:22:13.880Z,11.04
2023-03-29T11:25:03.463Z,11.42
2023-03-29T11:27:43.194Z,11.92
2023-03-29T11:30:23.891Z,12.20
2023-03-29T11:33:08.642Z,12.20
2023-03-29T11:35:54.473Z,12.27
2023-03-29T11:38:30.493Z,12.26
2023-03-29T11:41:10.931Z,12.56
2023-03-29T11:43:46.288Z,12.29
2023-03-29T11:46:24.980Z,12.29
2023-03-29T11:49:02.866Z,11.91
2023-03-29T11:51:37.281Z,11.73
2023-03-29T11:54:17.537Z,11.53
2023-03-29T11:56:55.227Z,11.56
2023-03-29T11:59:34.006Z,11.51
2023-03-29T12:02:13.595Z,11.80
2023-03-29T12:04:50.300Z,12.52
2023-03-29T12:07:29.018Z,12.64
2023-03-29T12:10:08.156Z,12.65
2023-03-29T12:12:47.628Z,12.36
2023-03-29T12:15:21.581Z,12.25
2023-03-29T12:18:03.949Z,12.39
2023-03-29T12:20:39.085Z,12.46
2023-03-29T12:23:15.773Z,12.60
2023-03-29T12:25:57.242Z,12.70
2023-03-29T12:28:51.843Z,13.14
2023-03-29T12:31:32.676Z,13.14
2023-03-29T12:34:29.711Z,12.73
2023-03-29T12:37:31.956Z,12.85
2023-03-29T12:40:21.774Z,13.27
2023-03-29T12:43:24.037Z,13.07
2023-03-29T12:46:19.327Z,13.49
2023-03-29T12:48:55.752Z,13.99
2023-03-29T12:51:32.341Z,13.81
2023-03-29T12:54:13.342Z,13.43
2023-03-29T12:56:55.848Z,13.42
2023-03-29T12:59:38.656Z,13.49
2023-03-29T13:05:34.713Z,13.18
2023-03-29T13:08:23.147Z,13.57
2023-03-29T13:10:56.993Z,13.59
2023-03-29T13:13:31.084Z,13.48
2023-03-29T13:16:14.061Z,13.89
2023-03-29T13:19:04.212Z,14.21
2023-03-29T13:21:50.809Z,14.35
2023-03-29T13:24:39.407Z,14.58
2023-03-29T13:27:25.062Z,14.45
2023-03-29T13:30:12.940Z,14.20
2023-03-29T13:32:55.588Z,14.10
2023-03-29T13:35:42.504Z,14.27
2023-03-29T13:38:21.595Z,14.14
2023-03-29T13:41:23.672Z,14.25
2023-03-29T13:43:56.318Z,14.35
2023-03-29T13:46:37.983Z,14.33
2023-03-29T13:49:19.800Z,14.56
2023-03-29T13:52:15.905Z,14.63
2023-03-29T13:54:56.213Z,14.53
2023-03-29T13:57:34.856Z,14.06
2023-03-29T14:00:11.777Z,14.06
2023-03-29T14:02:49.448Z,13.83
2023-03-29T14:05:24.560Z,13.79
2023-03-29T14:07:55.668Z,13.66
2023-03-29T14:10:34.496Z,13.75
2023-03-29T14:13:04.529Z,13.93
2023-03-29T14:15:45.852Z,13.48
2023-03-29T14:18:18.739Z,13.43
2023-03-29T14:20:50.785Z,13.42
2023-03-29T14:23:23.476Z,12.91
2023-03-29T14:25:53.898Z,13.16
2023-03-29T14:28:25.421Z,12.89
2023-03-29T14:30:54.613Z,12.89
2023-03-29T14:33:28.331Z,12.75
2023-03-29T14:35:58.607Z,13.01
2023-03-29T14:38:28.588Z,13.03
2023-03-29T14:41:03.452Z,13.39
2023-03-29T14:43:33.110Z,13.69
2023-03-29T14:46:06.394Z,13.27
2023-03-29T14:48:36.010Z,12.98
2023-03-29T14:51:06.474Z,12.84
2023-03-29T14:53:38.013Z,12.66
2023-03-29T14:56:12.414Z,12.63
2023-03-29T14:58:46.632Z,12.70
2023-03-29T15:01:19.085Z,12.29
2023-03-29T15:03:55.222Z,12.46
2023-03-29T15:06:25.303Z,12.28
2023-03-29T15:09:04.894Z,12.18
2023-03-29T15:11:36.704Z,12.15
2023-03-29T15:14:09.386Z,11.82
2023-03-29T15:16:43.308Z,11.81
2023-03-29T15:19:18.822Z,11.80
2023-03-29T15:21:50.615Z,11.89
2023-03-29T15:24:28.695Z,11.89
2023-03-29T15:27:05.604Z,11.97
2023-03-29T15:29:41.906Z,11.91
2023-03-29T15:32:12.048Z,12.07
2023-03-29T15:34:41.393Z,12.09
2023-03-29T15:37:13.753Z,11.93
2023-03-29T15:39:45.313Z,11.95
2023-03-29T15:42:15.284Z,11.78
2023-03-29T15:44:45.914Z,11.61
2023-03-29T15:47:15.089Z,11.46
2023-03-29T15:49:43.867Z,11.34
2023-03-29T15:52:12.373Z,11.22
2023-03-29T15:54:41.085Z,11.29
2023-03-29T15:57:16.929Z,11.32
2023-03-29T15:59:46.259Z,11.51
2023-03-29T16:02:16.867Z,11.47
2023-03-29T16:04:45.897Z,11.43
2023-03-29T16:07:17.560Z,11.24
2023-03-29T16:09:46.990Z,11.53
2023-03-29T16:12:17.280Z,11.53
2023-03-29T16:14:46.355Z,11.42
2023-03-29T16:17:15.992Z,11.22
2023-03-29T16:19:44.770Z,11.12
2023-03-29T16:22:13.489Z,11.09
2023-03-29T16:24:43.813Z,11.08
2023-03-29T16:27:12.571Z,10.98
2023-03-29T16:29:42.751Z,10.86
2023-03-29T16:32:11.953Z,10.58
2023-03-29T16:34:41.526Z,10.34
2023-03-29T16:37:10.372Z,10.04
2023-03-29T16:39:39.140Z,9.81
2023-03-29T16:42:12.216Z,9.63
2023-03-29T16:44:42.121Z,9.50
2023-03-29T16:47:12.759Z,9.36
2023-03-29T16:49:43.690Z,9.25
2023-03-29T16:52:14.025Z,9.15
2023-03-29T16:54:42.762Z,9.06
2023-03-29T16:57:11.518Z,8.99
2023-03-29T16:59:45.019Z,8.97
2023-03-29T17:02:13.783Z,8.98
2023-03-29T17:04:42.577Z,8.97
2023-03-29T17:07:11.316Z,8.99
2023-03-29T17:09:40.922Z,9.05
2023-03-29T17:12:09.808Z,9.11
2023-03-29T17:14:38.892Z,9.17
2023-03-29T17:17:09.160Z,9.21
2023-03-29T17:19:37.952Z,9.23
2023-03-29T17:22:06.596Z,9.09
2023-03-29T17:24:35.497Z,9.25
2023-03-29T17:27:04.290Z,9.25
2023-03-29T17:29:33.185Z,9.23
2023-03-29T17:32:01.939Z,9.22
2023-03-29T17:34:33.097Z,9.25
2023-03-29T17:37:03.812Z,9.23
2023-03-29T17:39:37.160Z,9.24
2023-03-29T17:42:06.419Z,9.24
2023-03-29T17:44:35.191Z,9.25
2023-03-29T17:47:04.006Z,9.23
2023-03-29T17:49:36.828Z,9.21
2023-03-29T17:52:06.433Z,9.22
2023-03-29T17:54:35.883Z,9.21
2023-03-29T17:57:04.952Z,9.20
2023-03-29T17:59:33.918Z,9.19
2023-03-29T18:02:05.470Z,9.17
2023-03-29T18:04:35.757Z,9.19
2023-03-29T18:07:04.884Z,9.20
2023-03-29T18:09:33.861Z,9.20
2023-03-29T18:12:03.339Z,9.19
2023-03-29T18:14:32.164Z,9.22
2023-03-29T18:17:01.030Z,9.22
2023-03-29T18:19:29.992Z,9.21
2023-03-29T18:22:00.869Z,9.18
2023-03-29T18:24:29.694Z,9.18
2023-03-29T18:26:58.465Z,9.16
2023-03-29T18:29:45.083Z,9.15
2023-03-29T18:32:14.008Z,9.16
2023-03-29T18:34:42.932Z,9.15
2023-03-29T18:37:15.147Z,9.15
2023-03-29T18:39:44.837Z,9.13
2023-03-29T18:42:14.067Z,9.13
2023-03-29T18:44:42.851Z,9.12
2023-03-29T18:47:11.584Z,9.11
2023-03-29T18:49:40.663Z,9.09
2023-03-29T18:52:09.874Z,9.11
2023-03-29T18:54:40.082Z,9.12
2023-03-29T18:57:08.911Z,9.13
2023-03-29T18:59:37.746Z,9.13
2023-03-29T19:02:07.042Z,9.12
2023-03-29T19:04:35.857Z,9.12
2023-03-29T19:07:04.770Z,9.11
2023-03-29T19:09:33.818Z,9.09
2023-03-29T19:12:04.024Z,9.10
2023-03-29T19:14:32.739Z,9.07
2023-03-29T19:17:01.504Z,9.07
2023-03-29T19:19:29.950Z,9.09
2023-03-29T19:22:00.561Z,9.11
2023-03-29T19:24:29.959Z,9.13
2023-03-29T19:26:58.807Z,9.11
2023-03-29T19:29:29.080Z,9.13
2023-03-29T19:31:58.005Z,9.16
2023-03-29T19:34:27.168Z,9.14
2023-03-29T19:36:56.593Z,9.13
2023-03-29T19:39:27.471Z,9.13
2023-03-29T19:41:56.265Z,9.11
2023-03-29T19:44:25.324Z,9.09
2023-03-29T19:46:55.567Z,9.11
2023-03-29T19:49:24.582Z,9.12
2023-03-29T19:51:54.497Z,9.09
2023-03-29T19:54:26.131Z,9.11
2023-03-29T19:56:57.311Z,9.08
2023-03-29T19:59:26.664Z,9.07
2023-03-29T20:01:57.106Z,9.09
2023-03-29T20:04:26.218Z,9.09
2023-03-29T20:06:55.304Z,9.12
2023-03-29T20:09:24.025Z,9.13
2023-03-29T20:11:52.793Z,9.14
2023-03-29T20:14:21.570Z,9.13
2023-03-29T20:16:50.817Z,9.14
2023-03-29T20:19:24.707Z,9.15
2023-03-29T20:21:55.114Z,9.12
2023-03-29T20:24:24.072Z,9.08
2023-03-29T20:26:53.380Z,9.11
2023-03-29T20:29:22.700Z,9.08
2023-03-29T20:31:51.665Z,9.04
2023-03-29T20:34:21.870Z,8.99
2023-03-29T20:36:50.750Z,8.95
2023-03-29T20:39:19.719Z,8.89
2023-03-29T20:41:48.732Z,8.86
2023-03-29T20:44:18.457Z,8.85
2023-03-29T20:46:54.456Z,8.88
2023-03-29T20:49:29.853Z,8.89
2023-03-29T20:51:59.325Z,8.91
2023-03-29T20:54:28.166Z,8.90
2023-03-29T20:56:56.901Z,8.93
2023-03-29T20:59:27.538Z,8.94
2023-03-29T21:01:56.671Z,8.96
2023-03-29T21:04:26.844Z,8.96
2023-03-29T21:06:56.252Z,8.99
2023-03-29T21:09:25.819Z,9.00
2023-03-29T21:11:54.550Z,9.01
2023-03-29T21:14:23.365Z,8.95
2023-03-29T21:16:52.292Z,8.91
2023-03-29T21:19:21.224Z,8.85
2023-03-29T21:21:52.298Z,8.80
2023-03-29T21:24:21.699Z,8.71
2023-03-29T21:26:50.491Z,8.66
2023-03-29T21:29:19.196Z,8.65
2023-03-29T21:31:47.961Z,8.64
2023-03-29T21:34:16.825Z,8.64
2023-03-29T21:36:45.619Z,8.65
2023-03-29T21:39:15.732Z,8.67
2023-03-29T21:41:44.896Z,8.67
2023-03-29T21:44:13.848Z,8.71
2023-03-29T21:46:42.599Z,8.72
2023-03-29T21:49:14.131Z,8.73
2023-03-29T21:51:47.258Z,8.77
2023-03-29T21:54:17.376Z,8.76
2023-03-29T21:56:47.759Z,8.76
2023-03-29T21:59:16.793Z,8.78
2023-03-29T22:01:45.611Z,8.79
2023-03-29T22:04:19.995Z,8.80
2023-03-29T22:06:54.503Z,8.80
2023-03-29T22:09:26.096Z,8.84
2023-03-29T22:11:54.853Z,8.88
2023-03-29T22:14:23.580Z,8.88
2023-03-29T22:16:52.487Z,8.88
2023-03-29T22:19:21.374Z,8.88
2023-03-29T22:21:51.392Z,8.89
2023-03-29T22:24:20.217Z,8.91
2023-03-29T22:26:50.391Z,8.91
2023-03-29T22:29:19.096Z,8.87
2023-03-29T22:31:47.897Z,8.89
2023-03-29T22:34:16.811Z,8.91
2023-03-29T22:36:45.541Z,8.48
2023-03-29T22:39:14.413Z,8.88
2023-03-29T22:41:43.183Z,8.88
2023-03-29T22:44:13.645Z,8.86
2023-03-29T22:46:42.474Z,8.81
2023-03-29T22:49:11.511Z,8.78
2023-03-29T22:51:40.516Z,8.77
2023-03-29T22:54:09.214Z,8.79
2023-03-29T22:56:37.979Z,8.79
2023-03-29T22:59:06.957Z,8.78
2023-03-29T23:01:37.186Z,8.80
2023-03-29T23:04:06.339Z,8.77
2023-03-29T23:06:35.035Z,8.76
2023-03-29T23:09:03.876Z,8.76
2023-03-29T23:11:32.655Z,8.74
2023-03-29T23:14:03.987Z,8.74
2023-03-29T23:16:32.876Z,8.72
2023-03-29T23:19:03.037Z,8.70
2023-03-29T23:21:32.256Z,8.68
2023-03-29T23:24:01.645Z,8.65
2023-03-29T23:26:30.442Z,8.64
2023-03-29T23:28:59.120Z,8.63
2023-03-29T23:31:27.911Z,8.65
2023-03-29T23:33:56.721Z,8.68
2023-03-29T23:36:31.137Z,8.69
2023-03-29T23:38:59.902Z,8.68
2023-03-29T23:41:30.754Z,8.70
2023-03-29T23:43:59.557Z,8.70
2023-03-29T23:46:28.330Z,8.67
2023-03-29T23:48:57.046Z,8.64
2023-03-29T23:51:28.432Z,8.64
2023-03-29T23:53:57.859Z,8.63
2023-03-29T23:56:26.655Z,8.64
2023-03-29T23:58:55.488Z,8.64
